Time;durP1;ratioP1;P1;durP2;ratioP2;P2;SDS_P1;SDS_P2;PMS_P1;PMS_P2;Temp;Humidity;BMP_temperature;BMP_pressure;BME280_temperature;BME280_humidity;BME280_pressure;Samples;Min_cycle;Max_cycle;Signal;HPM_P1;HPM_P2
2023/03/30 00:01:30;;;;;;;26.27;22.67;;;;;;;;;;4990702;28;20058;-86
2023/03/30 00:03:57;;;;;;;30.42;23.25;;;;;;;;;;4991193;28;20046;-86
2023/03/30 00:06:25;;;;;;;28.83;22.60;;;;;;;;;;4990034;28;20054;-87
2023/03/30 00:08:56;;;;;;;29.98;22.17;;;;;;;;;;4990175;28;20043;-87
2023/03/30 00:11:22;;;;;;;24.35;20.85;;;;;;;;;;4990729;28;20651;-87
2023/03/30 00:13:52;;;;;;;27.05;21.92;;;;;;;;;;4991961;28;20046;-86
2023/03/30 00:16:18;;;;;;;25.25;19.90;;;;;;;;;;4989767;28;20049;-87
2023/03/30 00:18:44;;;;;;;25.80;19.60;;;;;;;;;;4990659;28;20039;-87
2023/03/30 00:21:11;;;;;;;22.83;19.55;;;;;;;;;;4991362;28;20066;-88
2023/03/30 00:23:38;;;;;;;23.63;20.10;;;;;;;;;;4989879;28;20042;-87
2023/03/30 00:26:04;;;;;;;24.70;18.25;;;;;;;;;;4998645;28;20046;-86
2023/03/30 00:28:31;;;;;;;23.35;19.27;;;;;;;;;;5001645;28;20523;-86
2023/03/30 00:30:57;;;;;;;25.42;18.85;;;;;;;;;;5002492;28;20100;-87
2023/03/30 00:33:23;;;;;;;20.98;17.35;;;;;;;;;;5002695;28;20452;-87
2023/03/30 00:35:53;;;;;;;23.13;15.30;;;;;;;;;;5002334;28;20061;-86
2023/03/30 00:38:22;;;;;;;20.13;13.60;;;;;;;;;;5000845;28;20108;-87
2023/03/30 00:40:52;;;;;;;19.63;13.75;;;;;;;;;;5001081;28;20069;-86
2023/03/30 00:43:19;;;;;;;18.40;12.68;;;;;;;;;;5003060;28;20046;-86
2023/03/30 00:45:45;;;;;;;17.02;12.98;;;;;;;;;;5015128;28;20102;-86
2023/03/30 00:48:14;;;;;;;19.92;13.45;;;;;;;;;;5016226;28;20034;-86
2023/03/30 00:50:43;;;;;;;19.98;12.93;;;;;;;;;;5001830;28;20065;-86
2023/03/30 00:53:26;;;;;;;18.90;12.88;;;;;;;;;;4996016;28;20074;-86
2023/03/30 00:55:53;;;;;;;17.58;12.00;;;;;;;;;;4999121;28;20046;-86
2023/03/30 00:58:21;;;;;;;15.75;11.85;;;;;;;;;;5000944;28;20042;-86
2023/03/30 01:00:47;;;;;;;17.08;12.43;;;;;;;;;;4999990;28;20042;-87
2023/03/30 01:03:18;;;;;;;15.90;12.13;;;;;;;;;;4998933;28;20039;-86
2023/03/30 01:05:45;;;;;;;20.77;12.73;;;;;;;;;;4999040;28;20452;-87
2023/03/30 01:08:15;;;;;;;19.33;13.25;;;;;;;;;;4999971;28;20057;-87
2023/03/30 01:10:41;;;;;;;17.58;12.25;;;;;;;;;;5001401;28;20046;-87
2023/03/30 01:13:07;;;;;;;16.30;11.90;;;;;;;;;;5001951;28;20061;-87
2023/03/30 01:15:35;;;;;;;14.52;11.60;;;;;;;;;;4998901;28;20050;-88
2023/03/30 01:18:07;;;;;;;19.10;12.05;;;;;;;;;;4983057;28;20053;-87
2023/03/30 01:20:33;;;;;;;18.30;12.07;;;;;;;;;;4999680;28;20046;-87
2023/03/30 01:23:26;;;;;;;16.52;10.93;;;;;;;;;;5000155;28;20135;-87
2023/03/30 01:26:00;;;;;;;15.77;11.20;;;;;;;;;;5000707;28;20042;-88
2023/03/30 01:28:49;;;;;;;15.85;10.60;;;;;;;;;;4972598;28;20054;-87
2023/03/30 01:31:15;;;;;;;16.30;10.43;;;;;;;;;;4986713;28;20064;-88
2023/03/30 01:33:41;;;;;;;14.95;10.38;;;;;;;;;;4981638;28;20062;-87
2023/03/30 01:36:16;;;;;;;16.00;10.60;;;;;;;;;;4998667;28;20050;-87
2023/03/30 01:39:01;;;;;;;14.52;10.52;;;;;;;;;;5000608;28;20049;-87
2023/03/30 01:41:32;;;;;;;13.68;9.70;;;;;;;;;;5000720;28;20039;-87
2023/03/30 01:44:07;;;;;;;17.70;9.82;;;;;;;;;;4984196;28;20046;-87
2023/03/30 01:46:39;;;;;;;15.55;9.82;;;;;;;;;;4999808;28;20046;-87
2023/03/30 01:49:05;;;;;;;;;;;;;;;;;;4983585;28;20042;-86
2023/03/30 01:51:38;;;;;;;12.73;7.00;;;;;;;;;;4999945;28;19953;-87
2023/03/30 01:54:09;;;;;;;12.02;7.40;;;;;;;;;;4999749;28;20488;-86
2023/03/30 01:56:55;;;;;;;12.07;7.05;;;;;;;;;;4995638;28;20042;-86
2023/03/30 01:59:21;;;;;;;13.90;6.75;;;;;;;;;;4991204;28;20050;-86
2023/03/30 02:01:52;;;;;;;10.70;6.25;;;;;;;;;;4982266;28;20047;-87
2023/03/30 02:04:20;;;;;;;13.02;6.25;;;;;;;;;;4982173;28;20048;-87
2023/03/30 02:06:48;;;;;;;11.75;6.10;;;;;;;;;;4998344;28;20412;-86
2023/03/30 02:09:15;;;;;;;15.02;6.43;;;;;;;;;;4996990;28;20544;-86
2023/03/30 02:11:43;;;;;;;13.18;6.00;;;;;;;;;;4996208;28;20045;-86
2023/03/30 02:14:10;;;;;;;14.60;5.82;;;;;;;;;;4999929;28;20050;-87
2023/03/30 02:16:41;;;;;;;13.90;5.75;;;;;;;;;;4997227;28;20440;-88
2023/03/30 02:19:07;;;;;;;9.98;5.78;;;;;;;;;;4990343;28;20046;-86
2023/03/30 02:21:34;;;;;;;14.05;6.47;;;;;;;;;;4981917;28;20499;-86
2023/03/30 02:24:02;;;;;;;12.38;5.70;;;;;;;;;;5000431;28;20400;-86
2023/03/30 02:26:29;;;;;;;10.85;5.95;;;;;;;;;;4999735;28;20042;-87
2023/03/30 02:28:55;;;;;;;10.98;5.53;;;;;;;;;;4998645;28;20056;-86
2023/03/30 02:31:21;;;;;;;10.98;5.95;;;;;;;;;;4999146;28;20065;-86
2023/03/30 02:33:57;;;;;;;9.45;5.50;;;;;;;;;;5000086;28;20046;-86
2023/03/30 02:36:42;;;;;;;10.02;5.65;;;;;;;;;;4998442;28;20113;-87
2023/03/30 02:39:35;;;;;;;12.02;5.35;;;;;;;;;;4999856;28;20092;-85
2023/03/30 02:42:10;;;;;;;9.60;5.50;;;;;;;;;;4998404;28;20073;-85
2023/03/30 02:44:54;;;;;;;12.93;5.40;;;;;;;;;;4999067;28;20078;-86
2023/03/30 02:47:40;;;;;;;13.02;6.22;;;;;;;;;;5000572;28;20082;-87
2023/03/30 02:50:06;;;;;;;9.90;5.30;;;;;;;;;;5000416;28;20400;-87
2023/03/30 02:52:38;;;;;;;10.98;5.60;;;;;;;;;;4999143;28;20054;-87
2023/03/30 02:55:33;;;;;;;10.57;5.32;;;;;;;;;;5000620;28;20047;-87
2023/03/30 02:58:06;;;;;;;10.23;5.20;;;;;;;;;;4998180;28;20089;-87
2023/03/30 03:00:44;;;;;;;13.40;5.45;;;;;;;;;;4998224;28;20050;-87
2023/03/30 03:03:16;;;;;;;8.80;4.65;;;;;;;;;;5000964;28;20400;-87
2023/03/30 03:05:43;;;;;;;8.45;4.68;;;;;;;;;;5000666;28;20039;-87
2023/03/30 03:08:12;;;;;;;9.27;4.50;;;;;;;;;;5000223;28;20058;-87
2023/03/30 03:10:38;;;;;;;9.27;4.43;;;;;;;;;;5003220;28;20066;-86
2023/03/30 03:13:04;;;;;;;10.20;4.68;;;;;;;;;;5004420;28;20054;-86
2023/03/30 03:15:30;;;;;;;10.15;4.20;;;;;;;;;;5002665;28;20042;-86
2023/03/30 03:17:57;;;;;;;9.18;4.60;;;;;;;;;;5015973;28;20062;-86
2023/03/30 03:20:27;;;;;;;10.70;4.63;;;;;;;;;;5020774;28;20103;-86
2023/03/30 03:22:53;;;;;;;9.95;4.47;;;;;;;;;;5009320;28;20053;-86
2023/03/30 03:25:19;;;;;;;8.35;4.28;;;;;;;;;;5000673;28;20054;-86
2023/03/30 03:27:46;;;;;;;11.00;4.75;;;;;;;;;;5002300;28;20066;-87
2023/03/30 03:30:12;;;;;;;15.77;5.03;;;;;;;;;;5002973;28;20046;-87
2023/03/30 03:32:38;;;;;;;11.00;4.88;;;;;;;;;;5001278;28;20049;-86
2023/03/30 03:35:04;;;;;;;8.82;4.40;;;;;;;;;;5008758;28;20102;-87
2023/03/30 03:37:30;;;;;;;10.98;5.05;;;;;;;;;;5011111;28;20039;-86
2023/03/30 03:39:56;;;;;;;12.90;5.00;;;;;;;;;;5008345;28;20096;-87
2023/03/30 03:42:23;;;;;;;8.77;4.35;;;;;;;;;;5005048;28;20128;-87
2023/03/30 03:44:49;;;;;;;8.75;4.50;;;;;;;;;;4986845;28;20047;-87
2023/03/30 03:47:15;;;;;;;9.57;4.90;;;;;;;;;;5003446;28;20046;-86
2023/03/30 03:49:41;;;;;;;10.40;4.30;;;;;;;;;;5003878;28;20046;-87
2023/03/30 03:52:09;;;;;;;10.25;4.78;;;;;;;;;;5004223;28;20047;-87
2023/03/30 03:54:35;;;;;;;8.90;4.53;;;;;;;;;;5003050;28;20058;-86
2023/03/30 03:57:01;;;;;;;8.68;4.40;;;;;;;;;;5002494;28;20049;-86
2023/03/30 03:59:27;;;;;;;10.27;4.25;;;;;;;;;;5003194;28;20048;-86
2023/03/30 04:01:53;;;;;;;10.93;4.43;;;;;;;;;;5003952;28;20042;-87
2023/03/30 04:04:19;;;;;;;12.02;4.22;;;;;;;;;;5002935;28;20062;-87
2023/03/30 04:06:46;;;;;;;9.05;4.38;;;;;;;;;;5002834;28;20073;-88
2023/03/30 04:09:12;;;;;;;9.85;4.80;;;;;;;;;;5004948;28;20054;-88
2023/03/30 04:11:38;;;;;;;12.55;4.15;;;;;;;;;;5003994;28;20053;-87
2023/03/30 04:14:04;;;;;;;11.55;4.07;;;;;;;;;;5004574;28;20108;-87
2023/03/30 04:16:30;;;;;;;15.70;4.10;;;;;;;;;;5005935;28;20046;-88
2023/03/30 04:18:56;;;;;;;9.95;4.32;;;;;;;;;;5002769;28;20105;-88
2023/03/30 04:21:24;;;;;;;12.63;3.88;;;;;;;;;;4987706;28;20046;-88
2023/03/30 04:23:50;;;;;;;11.00;3.78;;;;;;;;;;5003816;28;20078;-88
2023/03/30 04:26:20;;;;;;;8.38;3.80;;;;;;;;;;5002580;28;20043;-87
2023/03/30 04:28:47;;;;;;;9.02;3.38;;;;;;;;;;4992511;28;20085;-88
2023/03/30 04:31:13;;;;;;;11.18;3.70;;;;;;;;;;4997763;28;20107;-88
2023/03/30 04:33:51;;;;;;;8.48;3.30;;;;;;;;;;5000380;28;20046;-87
2023/03/30 04:36:18;;;;;;;9.02;3.25;;;;;;;;;;5002984;28;20077;-88
2023/03/30 04:38:56;;;;;;;13.10;3.67;;;;;;;;;;5002062;28;20101;-87
2023/03/30 04:41:25;;;;;;;8.60;3.40;;;;;;;;;;5001514;28;20046;-89
2023/03/30 04:43:51;;;;;;;11.77;3.65;;;;;;;;;;5001514;28;20085;-88
2023/03/30 04:46:17;;;;;;;10.20;3.67;;;;;;;;;;5004667;28;20049;-88
2023/03/30 04:48:43;;;;;;;11.75;3.60;;;;;;;;;;5002848;28;20043;-87
2023/03/30 04:51:09;;;;;;;9.93;3.63;;;;;;;;;;5001782;28;20050;-87
2023/03/30 04:53:35;;;;;;;9.52;3.53;;;;;;;;;;5005360;28;20042;-87
2023/03/30 04:56:02;;;;;;;12.15;4.35;;;;;;;;;;5003911;28;20050;-85
2023/03/30 04:58:28;;;;;;;11.60;4.75;;;;;;;;;;5001064;28;20057;-83
2023/03/30 05:00:55;;;;;;;10.70;4.50;;;;;;;;;;4992075;28;20053;-83
2023/03/30 05:03:21;;;;;;;11.10;4.90;;;;;;;;;;5003408;28;20126;-83
2023/03/30 05:05:47;;;;;;;9.02;4.38;;;;;;;;;;5002003;28;20042;-84
2023/03/30 05:08:13;;;;;;;8.98;4.18;;;;;;;;;;5002290;28;20055;-84
2023/03/30 05:10:39;;;;;;;9.98;4.35;;;;;;;;;;5002551;28;20058;-84
2023/03/30 05:13:06;;;;;;;10.63;4.70;;;;;;;;;;5001733;28;20060;-85
2023/03/30 05:15:32;;;;;;;10.73;4.32;;;;;;;;;;5002168;28;20046;-85
2023/03/30 05:17:59;;;;;;;12.13;4.65;;;;;;;;;;5001725;28;20054;-85
2023/03/30 05:20:25;;;;;;;12.73;4.40;;;;;;;;;;5003023;28;20046;-84
2023/03/30 05:22:52;;;;;;;10.43;4.15;;;;;;;;;;5001074;28;20485;-85
2023/03/30 05:25:18;;;;;;;11.55;4.40;;;;;;;;;;5000010;28;20069;-85
2023/03/30 05:27:45;;;;;;;12.50;4.78;;;;;;;;;;5001989;28;20070;-85
2023/03/30 05:30:11;;;;;;;10.15;4.07;;;;;;;;;;5000338;28;20129;-86
2023/03/30 05:32:37;;;;;;;10.13;4.63;;;;;;;;;;4994058;28;20392;-85
2023/03/30 05:35:04;;;;;;;11.27;4.25;;;;;;;;;;4997683;28;20409;-85
2023/03/30 05:37:30;;;;;;;13.15;4.65;;;;;;;;;;5002863;28;20078;-87
2023/03/30 05:39:56;;;;;;;13.20;4.40;;;;;;;;;;5001618;28;20393;-85
2023/03/30 05:42:22;;;;;;;11.35;4.65;;;;;;;;;;5002689;28;20046;-86
2023/03/30 05:44:48;;;;;;;12.82;4.40;;;;;;;;;;5007336;28;20043;-86
2023/03/30 05:47:15;;;;;;;11.55;5.35;;;;;;;;;;5007315;28;20057;-86
2023/03/30 05:49:41;;;;;;;13.73;4.50;;;;;;;;;;5007114;28;20061;-85
2023/03/30 05:52:07;;;;;;;8.10;3.90;;;;;;;;;;5007761;28;20042;-85
2023/03/30 05:54:34;;;;;;;10.88;3.97;;;;;;;;;;5007501;28;20038;-85
2023/03/30 05:57:00;;;;;;;10.45;3.92;;;;;;;;;;5003766;28;20097;-85
2023/03/30 05:59:26;;;;;;;10.13;3.80;;;;;;;;;;5003364;28;20463;-85
2023/03/30 06:01:53;;;;;;;13.20;4.00;;;;;;;;;;5002638;28;20100;-85
2023/03/30 06:04:19;;;;;;;12.48;4.35;;;;;;;;;;5000487;28;20121;-85
2023/03/30 06:06:45;;;;;;;10.20;3.90;;;;;;;;;;5001439;28;20058;-85
2023/03/30 06:09:11;;;;;;;10.13;4.07;;;;;;;;;;5002996;28;20065;-85
2023/03/30 06:11:37;;;;;;;9.80;3.72;;;;;;;;;;5001582;28;20101;-85
2023/03/30 06:14:04;;;;;;;11.52;3.70;;;;;;;;;;5000350;28;20435;-85
2023/03/30 06:16:30;;;;;;;12.13;3.97;;;;;;;;;;5000309;28;20085;-85
2023/03/30 06:18:56;;;;;;;11.18;3.85;;;;;;;;;;4996291;28;20051;-86
2023/03/30 06:21:22;;;;;;;10.45;3.78;;;;;;;;;;4998808;28;20046;-84
2023/03/30 06:23:49;;;;;;;13.10;4.15;;;;;;;;;;5000712;28;20095;-85
2023/03/30 06:26:15;;;;;;;14.52;4.70;;;;;;;;;;4996227;28;20081;-84
2023/03/30 06:28:41;;;;;;;11.10;4.95;;;;;;;;;;5000543;28;20057;-84
2023/03/30 06:31:08;;;;;;;9.68;3.95;;;;;;;;;;4999508;28;20043;-84
2023/03/30 06:33:36;;;;;;;10.82;3.72;;;;;;;;;;5000561;28;20062;-86
2023/03/30 06:36:02;;;;;;;11.43;4.05;;;;;;;;;;4997813;28;20527;-86
2023/03/30 06:38:28;;;;;;;11.25;3.53;;;;;;;;;;4998388;28;20124;-85
2023/03/30 06:40:54;;;;;;;10.77;4.03;;;;;;;;;;4999737;28;20484;-85
2023/03/30 06:43:25;;;;;;;11.95;6.07;;;;;;;;;;4999678;28;20133;-85
2023/03/30 06:45:51;;;;;;;10.82;5.13;;;;;;;;;;5002292;28;20391;-85
2023/03/30 06:48:18;;;;;;;11.95;4.05;;;;;;;;;;5004367;28;20102;-83
2023/03/30 06:50:48;;;;;;;10.73;3.95;;;;;;;;;;5002520;28;20137;-84
2023/03/30 06:53:14;;;;;;;10.55;4.00;;;;;;;;;;5001526;28;20047;-85
2023/03/30 06:55:40;;;;;;;11.23;3.72;;;;;;;;;;5003081;28;20046;-85
2023/03/30 06:58:06;;;;;;;11.77;3.30;;;;;;;;;;4991683;28;20508;-84
2023/03/30 07:00:33;;;;;;;12.18;3.63;;;;;;;;;;4976464;28;20038;-85
2023/03/30 07:02:59;;;;;;;10.02;3.50;;;;;;;;;;4991127;28;20092;-85
2023/03/30 07:05:28;;;;;;;9.98;3.08;;;;;;;;;;5003626;28;20046;-85
2023/03/30 07:07:55;;;;;;;11.10;3.35;;;;;;;;;;5005582;28;20054;-85
2023/03/30 07:10:22;;;;;;;11.18;2.85;;;;;;;;;;5006180;28;20057;-86
2023/03/30 07:12:48;;;;;;;10.32;3.10;;;;;;;;;;5000916;28;20485;-86
2023/03/30 07:15:15;;;;;;;10.18;3.10;;;;;;;;;;4998983;28;20077;-87
2023/03/30 07:17:41;;;;;;;12.25;3.38;;;;;;;;;;4999463;28;20046;-87
2023/03/30 07:20:09;;;;;;;10.45;2.83;;;;;;;;;;5001364;28;20138;-86
2023/03/30 07:22:35;;;;;;;11.77;3.10;;;;;;;;;;5005703;28;20053;-86
2023/03/30 07:25:01;;;;;;;11.63;3.15;;;;;;;;;;4985864;28;20050;-86
2023/03/30 07:27:28;;;;;;;13.45;3.40;;;;;;;;;;4978880;28;20046;-85
2023/03/30 07:29:54;;;;;;;13.52;2.83;;;;;;;;;;4985839;28;20065;-85
2023/03/30 07:32:21;;;;;;;11.63;3.13;;;;;;;;;;5000174;28;20050;-86
2023/03/30 07:34:47;;;;;;;16.00;3.45;;;;;;;;;;5002265;28;20050;-86
2023/03/30 07:37:13;;;;;;;18.30;3.20;;;;;;;;;;5003786;28;20510;-87
2023/03/30 07:39:40;;;;;;;14.82;3.10;;;;;;;;;;4999756;28;20132;-86
2023/03/30 07:42:06;;;;;;;16.50;3.33;;;;;;;;;;5002339;28;20046;-86
2023/03/30 07:44:32;;;;;;;14.73;3.28;;;;;;;;;;5005083;28;20058;-87
2023/03/30 07:46:58;;;;;;;17.65;3.10;;;;;;;;;;4996293;28;20194;-86
2023/03/30 07:49:25;;;;;;;14.25;2.63;;;;;;;;;;5000138;28;20046;-86
2023/03/30 07:51:53;;;;;;;16.13;2.92;;;;;;;;;;5005313;28;20050;-86
2023/03/30 07:54:19;;;;;;;16.80;3.47;;;;;;;;;;5008377;28;20038;-87
2023/03/30 07:56:51;;;;;;;16.65;3.05;;;;;;;;;;5007925;28;20057;-85
2023/03/30 07:59:18;;;;;;;19.13;3.78;;;;;;;;;;5002286;28;20043;-86
2023/03/30 08:01:45;;;;;;;13.52;2.95;;;;;;;;;;5004661;28;20123;-87
2023/03/30 08:04:11;;;;;;;15.55;3.15;;;;;;;;;;5004757;28;20038;-88
2023/03/30 08:06:38;;;;;;;19.00;3.42;;;;;;;;;;5003797;28;20062;-87
2023/03/30 08:09:04;;;;;;;19.40;3.88;;;;;;;;;;5003137;28;20084;-87
2023/03/30 08:11:31;;;;;;;17.58;3.13;;;;;;;;;;5004472;28;20504;-87
2023/03/30 08:13:57;;;;;;;19.67;3.42;;;;;;;;;;5003517;28;20269;-87
2023/03/30 08:16:24;;;;;;;16.60;3.53;;;;;;;;;;5001609;28;20047;-86
2023/03/30 08:18:53;;;;;;;22.80;3.88;;;;;;;;;;4998824;28;20047;-88
2023/03/30 08:21:20;;;;;;;17.60;3.95;;;;;;;;;;5004718;28;20049;-87
2023/03/30 08:23:46;;;;;;;17.52;3.42;;;;;;;;;;4989982;28;20074;-87
2023/03/30 08:26:12;;;;;;;21.88;3.97;;;;;;;;;;5000639;28;20500;-87
2023/03/30 08:28:38;;;;;;;17.27;3.80;;;;;;;;;;5014635;28;20110;-86
2023/03/30 08:31:06;;;;;;;18.13;3.80;;;;;;;;;;5019925;28;20053;-86
2023/03/30 08:33:33;;;;;;;20.52;4.07;;;;;;;;;;5008670;28;20035;-88
2023/03/30 08:35:59;;;;;;;20.00;3.83;;;;;;;;;;5003777;28;20077;-88
2023/03/30 08:38:25;;;;;;;23.95;3.78;;;;;;;;;;5005224;28;20038;-87
2023/03/30 08:40:52;;;;;;;22.20;3.85;;;;;;;;;;5007169;28;20085;-88
2023/03/30 08:43:23;;;;;;;24.58;4.22;;;;;;;;;;5003801;28;20738;-87
2023/03/30 08:45:49;;;;;;;19.77;4.57;;;;;;;;;;5001858;28;20046;-88
2023/03/30 08:48:23;;;;;;;24.13;4.70;;;;;;;;;;4985361;28;20050;-87
2023/03/30 08:51:08;;;;;;;18.65;3.85;;;;;;;;;;5006858;28;20046;-87
2023/03/30 08:53:34;;;;;;;25.13;4.43;;;;;;;;;;5005123;28;20053;-88
2023/03/30 08:56:07;;;;;;;24.55;4.72;;;;;;;;;;5001712;28;20034;-88
2023/03/30 08:58:41;;;;;;;19.90;4.07;;;;;;;;;;5005001;28;20050;-85
2023/03/30 09:01:07;;;;;;;21.20;4.43;;;;;;;;;;5002513;28;20169;-86
2023/03/30 09:03:42;;;;;;;23.20;4.90;;;;;;;;;;5000981;28;20063;-85
2023/03/30 09:06:31;;;;;;;23.45;4.60;;;;;;;;;;4996942;28;20073;-85
2023/03/30 09:08:57;;;;;;;22.80;4.85;;;;;;;;;;4980460;28;20046;-86
2023/03/30 09:11:29;;;;;;;27.25;4.90;;;;;;;;;;5001665;28;20396;-86
2023/03/30 09:13:58;;;;;;;20.48;4.93;;;;;;;;;;4999230;28;20042;-86
2023/03/30 09:16:56;;;;;;;18.42;4.68;;;;;;;;;;4995838;28;20044;-87
2023/03/30 09:19:30;;;;;;;23.10;4.68;;;;;;;;;;4997326;28;20060;-87
2023/03/30 09:21:57;;;;;;;19.20;4.60;;;;;;;;;;4996425;28;20046;-87
2023/03/30 09:24:26;;;;;;;21.30;4.78;;;;;;;;;;5003302;28;20050;-86
2023/03/30 09:26:56;;;;;;;28.45;5.72;;;;;;;;;;5002925;28;20129;-84
2023/03/30 09:29:31;;;;;;;20.60;4.22;;;;;;;;;;4985557;28;20046;-85
2023/03/30 09:32:05;;;;;;;20.27;4.40;;;;;;;;;;5003182;28;20046;-87
2023/03/30 09:34:49;;;;;;;25.08;5.07;;;;;;;;;;5001551;28;20041;-86
2023/03/30 09:37:20;;;;;;;26.00;4.93;;;;;;;;;;4995461;28;20047;-86
2023/03/30 09:39:47;;;;;;;23.10;4.53;;;;;;;;;;5001067;28;20038;-87
2023/03/30 09:42:35;;;;;;;22.55;4.22;;;;;;;;;;5003014;28;20096;-88
2023/03/30 09:45:07;;;;;;;15.30;3.10;;;;;;;;;;5002757;28;20047;-87
2023/03/30 09:47:37;;;;;;;21.80;4.20;;;;;;;;;;5005598;28;20050;-88
2023/03/30 09:50:08;;;;;;;22.50;4.13;;;;;;;;;;5002410;28;20093;-87
2023/03/30 09:52:37;;;;;;;19.80;4.30;;;;;;;;;;4998762;28;20054;-87
2023/03/30 09:55:18;;;;;;;22.73;3.90;;;;;;;;;;5002312;28;20061;-87
2023/03/30 09:57:44;;;;;;;22.52;3.78;;;;;;;;;;5005813;28;20050;-88
2023/03/30 10:00:31;;;;;;;24.55;4.50;;;;;;;;;;5005778;28;20069;-87
2023/03/30 10:03:02;;;;;;;18.70;3.75;;;;;;;;;;4982099;28;20046;-88
2023/03/30 10:05:29;;;;;;;16.45;3.70;;;;;;;;;;4983871;28;20049;-88
2023/03/30 10:08:06;;;;;;;17.90;3.75;;;;;;;;;;5004152;28;20072;-88
2023/03/30 10:10:39;;;;;;;19.50;3.75;;;;;;;;;;4999295;28;20045;-89
2023/03/30 10:13:07;;;;;;;17.98;3.17;;;;;;;;;;5003251;28;20045;-89
2023/03/30 10:15:37;;;;;;;18.15;2.80;;;;;;;;;;4986978;28;20053;-88
2023/03/30 10:18:11;;;;;;;13.93;2.72;;;;;;;;;;5003205;28;20039;-88
2023/03/30 10:20:38;;;;;;;16.45;3.45;;;;;;;;;;5001706;28;20078;-88
2023/03/30 10:23:17;;;;;;;14.73;3.00;;;;;;;;;;4984655;28;20128;-88
2023/03/30 10:25:48;;;;;;;19.88;2.92;;;;;;;;;;4969217;28;20051;-87
2023/03/30 10:28:14;;;;;;;;;;;;;;;;;;5003021;28;20513;-89
2023/03/30 10:30:40;;;;;;;15.13;2.70;;;;;;;;;;5002557;28;19929;-88
2023/03/30 10:33:10;;;;;;;13.10;2.72;;;;;;;;;;5004285;28;20069;-87
2023/03/30 10:35:37;;;;;;;15.70;3.20;;;;;;;;;;5004641;28;20043;-87
2023/03/30 10:38:04;;;;;;;17.05;2.92;;;;;;;;;;5004344;28;20046;-87
2023/03/30 10:40:39;;;;;;;11.65;2.33;;;;;;;;;;4983721;28;20061;-87
2023/03/30 10:43:07;;;;;;;11.10;2.50;;;;;;;;;;5001656;28;20077;-88
2023/03/30 10:45:41;;;;;;;15.07;2.88;;;;;;;;;;5002960;28;20054;-87
2023/03/30 10:48:10;;;;;;;15.40;2.20;;;;;;;;;;5004911;28;20042;-87
2023/03/30 10:50:46;;;;;;;12.25;2.10;;;;;;;;;;5005119;28;20098;-86
2023/03/30 10:53:21;;;;;;;15.57;2.65;;;;;;;;;;4991481;28;20380;-85
2023/03/30 10:55:53;;;;;;;15.10;2.25;;;;;;;;;;4995430;28;20101;-86
2023/03/30 10:58:37;;;;;;;14.05;2.30;;;;;;;;;;4998958;28;20038;-87
2023/03/30 11:01:28;;;;;;;12.77;2.00;;;;;;;;;;4986072;28;20038;-87
2023/03/30 11:03:58;;;;;;;14.93;2.50;;;;;;;;;;4988702;28;20130;-88
2023/03/30 11:06:30;;;;;;;13.95;2.67;;;;;;;;;;4993222;28;20046;-86
2023/03/30 11:08:59;;;;;;;15.68;3.08;;;;;;;;;;5011273;28;20069;-87
2023/03/30 11:11:38;;;;;;;15.00;2.85;;;;;;;;;;5011870;28;20053;-87
2023/03/30 11:14:11;;;;;;;12.73;2.63;;;;;;;;;;4991809;28;20078;-87
2023/03/30 11:16:37;;;;;;;16.85;2.78;;;;;;;;;;5002310;28;20051;-88
2023/03/30 11:19:06;;;;;;;14.55;3.30;;;;;;;;;;5003462;28;20054;-87
2023/03/30 11:21:42;;;;;;;13.27;3.20;;;;;;;;;;4978456;28;20039;-87
2023/03/30 11:24:11;;;;;;;15.65;3.08;;;;;;;;;;4998917;28;20042;-87
2023/03/30 11:26:38;;;;;;;15.70;2.90;;;;;;;;;;5000274;28;20042;-87
2023/03/30 11:29:19;;;;;;;13.50;2.63;;;;;;;;;;5001748;28;20050;-87
2023/03/30 11:32:04;;;;;;;13.70;2.92;;;;;;;;;;4992768;28;20081;-86
2023/03/30 11:34:56;;;;;;;14.77;3.17;;;;;;;;;;5003641;28;20050;-87
2023/03/30 11:37:29;;;;;;;14.43;2.80;;;;;;;;;;5000335;28;20050;-89
2023/03/30 11:40:09;;;;;;;14.48;2.50;;;;;;;;;;5012531;28;20049;-88
2023/03/30 11:42:36;;;;;;;11.60;2.50;;;;;;;;;;5003562;28;20047;-87
2023/03/30 11:45:03;;;;;;;11.82;2.55;;;;;;;;;;4988039;28;20050;-88
2023/03/30 11:47:48;;;;;;;13.25;2.75;;;;;;;;;;5004178;28;20210;-88
2023/03/30 11:50:28;;;;;;;14.43;3.28;;;;;;;;;;5006322;28;20046;-88
2023/03/30 11:52:55;;;;;;;13.53;3.00;;;;;;;;;;5005611;28;20042;-89
2023/03/30 11:55:39;;;;;;;16.75;3.05;;;;;;;;;;5005369;28;20115;-88
2023/03/30 11:58:12;;;;;;;16.60;3.50;;;;;;;;;;5004555;28;20056;-88
2023/03/30 12:00:39;;;;;;;16.42;3.05;;;;;;;;;;4993492;28;20042;-83
2023/03/30 12:03:08;;;;;;;17.15;3.03;;;;;;;;;;5008930;28;20046;-87
2023/03/30 12:05:36;;;;;;;14.75;2.67;;;;;;;;;;5009148;28;20500;-87
2023/03/30 12:08:29;;;;;;;15.80;2.90;;;;;;;;;;5005368;28;20084;-88
2023/03/30 12:11:00;;;;;;;12.20;2.78;;;;;;;;;;5005024;28;20042;-88
2023/03/30 12:13:27;;;;;;;13.15;2.78;;;;;;;;;;5006740;28;20046;-86
2023/03/30 12:16:11;;;;;;;15.05;3.03;;;;;;;;;;5006692;28;20039;-88
2023/03/30 12:18:41;;;;;;;20.17;3.38;;;;;;;;;;5001814;28;20043;-87
2023/03/30 12:21:07;;;;;;;14.73;3.22;;;;;;;;;;5004509;28;20038;-88
2023/03/30 12:23:34;;;;;;;21.58;3.72;;;;;;;;;;4989209;28;20053;-87
2023/03/30 12:26:17;;;;;;;15.15;2.92;;;;;;;;;;4984237;28;20057;-88
2023/03/30 12:28:48;;;;;;;19.27;3.20;;;;;;;;;;5004060;28;20061;-87
2023/03/30 12:31:14;;;;;;;14.35;3.05;;;;;;;;;;5003054;28;20046;-88
2023/03/30 12:33:46;;;;;;;16.13;3.22;;;;;;;;;;5005237;28;20125;-87
2023/03/30 12:36:33;;;;;;;18.17;3.85;;;;;;;;;;5006658;28;20074;-87
2023/03/30 12:39:04;;;;;;;19.13;3.55;;;;;;;;;;5005001;28;20133;-89
2023/03/30 12:41:39;;;;;;;23.17;3.90;;;;;;;;;;4986954;28;20456;-85
2023/03/30 12:44:09;;;;;;;17.65;2.92;;;;;;;;;;5004081;28;20047;-86
2023/03/30 12:46:40;;;;;;;20.05;4.07;;;;;;;;;;5003642;28;20047;-87
2023/03/30 12:49:27;;;;;;;16.65;3.45;;;;;;;;;;5000283;28;20078;-87
2023/03/30 12:52:12;;;;;;;21.98;3.83;;;;;;;;;;4996348;28;20057;-87
2023/03/30 12:54:48;;;;;;;17.23;3.42;;;;;;;;;;4999614;28;20129;-85
2023/03/30 12:57:21;;;;;;;15.10;3.10;;;;;;;;;;4996994;28;20137;-87
2023/03/30 12:59:56;;;;;;;18.45;2.88;;;;;;;;;;5002228;28;20125;-86
2023/03/30 13:02:38;;;;;;;17.67;3.58;;;;;;;;;;5004766;28;20054;-87
2023/03/30 13:05:16;;;;;;;15.82;3.22;;;;;;;;;;5002787;28;20136;-87
2023/03/30 13:07:43;;;;;;;15.68;2.80;;;;;;;;;;4987967;28;20102;-88
2023/03/30 13:10:28;;;;;;;17.98;3.00;;;;;;;;;;4991729;28;20061;-88
2023/03/30 13:12:56;;;;;;;15.63;3.67;;;;;;;;;;4997860;28;20158;-89
2023/03/30 13:15:40;;;;;;;22.13;4.07;;;;;;;;;;5004417;28;20061;-88
2023/03/30 13:18:09;;;;;;;17.50;3.70;;;;;;;;;;5001660;28;20396;-87
2023/03/30 13:20:56;;;;;;;20.58;3.80;;;;;;;;;;5004647;28;20047;-87
2023/03/30 13:23:22;;;;;;;18.45;3.80;;;;;;;;;;4977822;28;20055;-87
2023/03/30 13:25:48;;;;;;;24.88;4.90;;;;;;;;;;4997248;28;20053;-87
2023/03/30 13:28:33;;;;;;;23.73;4.25;;;;;;;;;;5003818;28;20124;-87
2023/03/30 13:31:12;;;;;;;19.40;3.83;;;;;;;;;;5003259;28;20076;-86
2023/03/30 13:33:40;;;;;;;20.92;3.92;;;;;;;;;;5002164;28;20117;-87
2023/03/30 13:36:27;;;;;;;19.58;3.47;;;;;;;;;;5001168;28;20148;-86
2023/03/30 13:38:53;;;;;;;22.63;3.97;;;;;;;;;;5003769;28;20092;-87
2023/03/30 13:41:19;;;;;;;23.75;3.20;;;;;;;;;;5002743;28;20101;-87
2023/03/30 13:43:59;;;;;;;21.02;3.20;;;;;;;;;;4998849;28;20057;-86
2023/03/30 13:46:28;;;;;;;17.90;3.63;;;;;;;;;;4994739;28;20134;-87
2023/03/30 13:48:54;;;;;;;20.50;3.67;;;;;;;;;;4999879;28;20048;-87
2023/03/30 13:51:24;;;;;;;19.15;3.35;;;;;;;;;;5009085;28;20166;-87
2023/03/30 13:53:53;;;;;;;17.75;3.65;;;;;;;;;;5004769;28;20050;-88
2023/03/30 13:56:19;;;;;;;20.20;3.78;;;;;;;;;;5003220;28;20492;-87
2023/03/30 13:58:50;;;;;;;20.42;3.95;;;;;;;;;;5000220;28;20122;-87
2023/03/30 14:01:19;;;;;;;20.88;3.80;;;;;;;;;;5001559;28;20556;-87
2023/03/30 14:03:49;;;;;;;18.55;3.08;;;;;;;;;;5000365;28;20042;-88
2023/03/30 14:06:17;;;;;;;19.90;3.67;;;;;;;;;;5003287;28;20122;-86
2023/03/30 14:08:48;;;;;;;19.67;3.70;;;;;;;;;;5002757;28;20046;-88
2023/03/30 14:11:17;;;;;;;17.60;3.70;;;;;;;;;;5005875;28;20106;-87
2023/03/30 14:13:44;;;;;;;22.92;3.75;;;;;;;;;;4986606;28;20106;-88
2023/03/30 14:16:13;;;;;;;21.63;4.03;;;;;;;;;;5000570;28;20094;-89
2023/03/30 14:18:39;;;;;;;22.55;3.70;;;;;;;;;;4999800;28;20114;-88
2023/03/30 14:21:08;;;;;;;17.55;3.97;;;;;;;;;;5002754;28;20039;-87
2023/03/30 14:23:36;;;;;;;21.27;3.67;;;;;;;;;;5002687;28;20081;-88
2023/03/30 14:26:04;;;;;;;19.15;4.00;;;;;;;;;;4977504;28;20061;-88
2023/03/30 14:28:34;;;;;;;22.42;3.90;;;;;;;;;;4997537;28;20065;-87
2023/03/30 14:31:03;;;;;;;23.42;4.20;;;;;;;;;;4999148;28;20169;-87
2023/03/30 14:33:31;;;;;;;17.90;3.60;;;;;;;;;;4982863;28;20047;-87
2023/03/30 14:35:59;;;;;;;21.95;4.50;;;;;;;;;;4996286;28;20052;-87
2023/03/30 14:38:26;;;;;;;21.15;4.38;;;;;;;;;;4981420;28;20081;-87
2023/03/30 14:40:53;;;;;;;21.33;3.90;;;;;;;;;;4965777;28;20042;-88
2023/03/30 14:43:21;;;;;;;19.70;4.22;;;;;;;;;;4986236;28;20050;-89
2023/03/30 14:45:47;;;;;;;20.58;3.85;;;;;;;;;;5003289;28;20077;-88
2023/03/30 14:48:33;;;;;;;21.23;3.70;;;;;;;;;;5001627;28;20097;-89